Tiempo atmosférico en la estación meteorológica de Barcena de Cicero, Treto, Cantabria (10 m.)



Fecha
DESCASC
Temp. máxima en grados centígrados (hora)
DESCASC
Temp. mínima en grados centígrados (hora)
DESCASC
Temp. media en grados centígrados
DESCASC
Racha de viento máxima en m/sg (hora)
DESCASC
Velocidad máxima media en intervalos de 10 minutos(hora)
DESCASC
Precipitaciones diarias en mm
DESCASC
Precipitaciones de 00:00 a 06:00 en mm
DESCASC
Precipitaciones de 06:00 a 12:00 en mm
DESCASC
Precipitaciones de 12:00 a 18:00 en mm
DESCASC
Precipitaciones de 18:00 a 24:00 en mm
DESCASC
20-06-2018 22.8 (13:30) 14.8 (06:40) 18.8 5.83 (14:20) 3.33 (14:20) 0 0 0 0 0
19-06-2018 19.9 (13:50) 16.5 (06:20) 18.2 9.72 (16:50) 6.11 (18:50) 1.6 1.6 0 0 0
18-06-2018 21.5 (15:10) 13.2 (03:30) 17.3 8.61 (15:40) 4.17 (15:20) 0 0 0 0 0
17-06-2018 20.6 (15:40) 13.6 (05:10) 17.1 7.5 (16:20) 3.89 (16:20) 0 0 0 0 0
16-06-2018 20 (15:00) 15 (03:30) 17.5 5.56 (17:00) 3.89 (17:10) 0.4 0 0.4 0 0
15-06-2018 20.6 (15:50) 13.1 (03:20) 16.9 6.39 (17:50) 3.33 (16:20) 2 0 0 0 2
14-06-2018 20.4 (13:30) 11 (00:00) 15.7 6.94 (13:50) 3.89 (16:50) 0 0 0 0 0
13-06-2018 20.1 (15:50) 14.3 (23:59) 17.2 9.72 (03:10) 5.83 (13:00) 0 0 0 0 0
12-06-2018 19.7 (17:00) 16.8 (14:00) 18.3 14.17 (13:50) 7.78 (16:00) 4.8 4.2 0.4 0.2 0
11-06-2018 21.5 (17:30) 15.5 (07:10) 18.5 8.89 (23:59) 5.28 (19:10) 3.2 0.4 2.8 0 0
10-06-2018 20.9 (11:20) 12.5 (00:00) 16.7 6.11 (19:10) 4.17 (19:10) 0.8 0 0 0.6 0.2
09-06-2018 20.3 (10:50) 14.4 (00:00) 17.3 7.78 (16:00) 5.28 (16:20) 0 0 0 0 0
08-06-2018 22.1 (14:00) 16.3 (00:00) 19.2 6.11 (15:20) 3.89 (15:10) 12 0 0.2 5.6 6.2
07-06-2018 20.8 (13:20) 16 (00:00) 18.4 7.5 (17:30) 5.28 (17:30) 0.6 0 0 0.6 0
06-06-2018 21.1 (15:20) 10.4 (00:00) 15.8 7.78 (15:00) 5 (17:10) 0 0 0 0 0
05-06-2018 18.3 (14:00) 12.7 (00:00) 15.5 6.67 (14:20) 3.33 (14:10) 6 0.4 5.6 0 0
04-06-2018 17.6 (14:00) 14.2 (00:00) 15.9 5 (00:40) 2.78 (01:10) 10.4 1.6 0 2.8 6
03-06-2018 19.8 (12:00) 15.5 (00:00) 17.6 5 (19:20) 3.06 (15:10) 1 0 0 1 0
02-06-2018 21.1 (12:40) 15.8 (00:00) 18.5 6.67 (15:00) 3.89 (14:20) 0.2 0 0 0.2 0
01-06-2018 18 (14:30) 12.7 (00:00) 15.3 4.72 (15:10) 3.06 (15:20) 0.8 0 0.2 0.2 0.4
31-05-2018 18.6 (13:50) 14.7 (07:10) 16.7 6.11 (14:40) 3.89 (14:30) 1.4 0.4 1 0 0
30-05-2018 18.5 (16:10) 15.1 (00:00) 16.8 4.44 (19:50) 2.78 (14:50) 0 0 0 0 0
29-05-2018 19 (11:50) 13.5 (00:00) 16.3 5 (12:10) 3.06 (13:50) 0 0 0 0 0
28-05-2018 17.8 (20:10) 14.4 (00:00) 16.1 5.83 (16:30) 3.61 (16:40) 0.6 0.2 0.4 0 0
27-05-2018 17.9 (12:20) 15.2 (00:00) 16.5 4.72 (16:50) 2.5 (16:00) 0.8 0 0 0.6 0.2
26-05-2018 20.2 (14:00) 13.5 (00:00) 16.9 13.33 (15:00) 6.39 (15:00) 16.6 0 0 12.6 4
25-05-2018 19 (18:10) 15.7 (00:00) 17.3 6.11 (02:50) 3.89 (18:40) 19 14.4 1.6 0.2 2.8
24-05-2018 20.8 (13:00) 14.6 (00:00) 17.7 6.67 (17:00) 4.72 (17:00) 0.2 0 0 0 0.2
23-05-2018 20.2 (13:10) 13 (00:00) 16.6 10.28 (15:30) 7.22 (14:40) 0.4 0 0 0 0.4
22-05-2018 21.7 (18:10) 10.5 (00:00) 16.1 6.11 (15:10) 4.17 (13:20) 0 0 0 0 0

Gráficas

Temp. máximas Temp. mínimas Temp. medias Precipitaciones Rachas de viento máximas Velocidades máximas media en intervalos de 10 minutos

Datos horarios

Fecha y hora oficial Temperatura (ºC) Velocidad del viento (km/h) Dirección del viento Racha (km/h) Dirección de racha Precipitación (mm) Presión (hPa) Tendencia (hPa) Humedad (%)
2018-06-20 23:00:00 20.2 9 Noroeste 18 Noroeste 0 -- -- 88
2018-06-20 22:00:00 20.7 9 Noroeste 14 Noroeste 0 -- -- 87
2018-06-20 21:00:00 21.5 7 Noroeste 14 Noroeste 0 -- -- 85
2018-06-20 20:00:00 21.8 8 Noroeste 14 Noroeste 0 -- -- 84
2018-06-20 19:00:00 21.2 6 Nordeste 16 Norte 0 -- -- 86
2018-06-20 18:00:00 21.2 11 Nordeste 16 Este 0 -- -- 86
2018-06-20 17:00:00 21.7 10 Nordeste 18 Nordeste 0 -- -- 84
2018-06-20 16:00:00 22.4 9 Nordeste 19 Norte 0 -- -- 83
2018-06-20 15:00:00 22.3 12 Nordeste 21 Nordeste 0 -- -- 83
2018-06-20 14:00:00 22.8 10 Nordeste 19 Norte 0 -- -- 82
2018-06-20 13:00:00 22 11 Nordeste 17 Nordeste 0 -- -- 83
2018-06-20 12:00:00 21.8 9 Nordeste 14 Norte 0 -- -- 84
2018-06-20 11:00:00 21.3 8 Nordeste 11 Nordeste 0 -- -- 83
2018-06-20 10:00:00 20.5 3 Este 12 Sur 0 -- -- 86
2018-06-20 09:00:00 18.1 6 Sur 10 Sudeste 0 -- -- 97
2018-06-20 08:00:00 15.8 4 Sur 7 Sudeste 0 -- -- 99
2018-06-20 07:00:00 14.8 3 Sur 8 Sudeste 0 -- -- 99
2018-06-20 06:00:00 14.9 3 Sur 8 Sudeste 0 -- -- 98
2018-06-20 05:00:00 15.2 0 Calma 4 Sur 0 -- -- 97
2018-06-20 04:00:00 15.7 0 Calma 3 Noroeste 0 -- -- 97
2018-06-20 03:00:00 16.6 0 Calma 3 Noroeste 0 -- -- 95
2018-06-20 02:00:00 17.7 0 Calma 8 Nordeste 0 -- -- 92
2018-06-20 01:00:00 18.9 4 Sur 8 Sur 0 -- -- 90
2018-06-20 00:00:00 19.3 0 Calma 9 Sur 0 -- -- 88
2018-06-19 23:00:00 19.1 3 Sur 4 Sudeste 0 -- -- 88
2018-06-19 22:00:00 19.3 2 Sudoeste 19 Este 0 -- -- 87
2018-06-19 21:00:00 19.4 15 Este 24 Nordeste 0 -- -- 86
2018-06-19 20:00:00 19.5 16 Este 28 Este 0 -- -- 86
2018-06-19 19:00:00 19.8 20 Este 30 Este 0 -- -- 84
2018-06-19 18:00:00 19.9 11 Este 26 Este 0 -- -- 85
2018-06-19 17:00:00 19.5 15 Este 35 Nordeste 0 -- -- 85
2018-06-19 16:00:00 19.5 17 Este 32 Este 0 -- -- 85
2018-06-19 15:00:00 19.1 16 Nordeste 25 Este 0 -- -- 87
2018-06-19 14:00:00 19.7 14 Nordeste 25 Este 0 -- -- 86
2018-06-19 13:00:00 18.9 9 Nordeste 18 Este 0 -- -- 89
2018-06-19 12:00:00 18.1 10 Este 16 Nordeste 0 -- -- 90
2018-06-19 11:00:00 17.9 3 Este 15 Este 0 -- -- 93
2018-06-19 10:00:00 17.9 5 Nordeste 8 Nordeste 0 -- -- 92
2018-06-19 09:00:00 17.1 3 Sudoeste 5 Sur 0 -- -- 95
2018-06-19 08:00:00 16.7 0 Calma 8 Este 0 -- -- 97
2018-06-19 07:00:00 16.6 3 Nordeste 5 Nordeste 0 -- -- 96
2018-06-19 06:00:00 16.6 2 Sur 3 Norte 0 -- -- 96
2018-06-19 05:00:00 16.6 0 Calma 6 Noroeste 0 -- -- 96
2018-06-19 04:00:00 16.8 3 Nordeste 12 Nordeste 0.2 -- -- 97
2018-06-19 03:00:00 17 2 Este 4 Norte 1.2 -- -- 96
2018-06-19 02:00:00 17.2 3 Sur 6 Noroeste 0.2 -- -- 94
2018-06-19 01:00:00 17.5 0 Calma 6 Oeste 0 -- -- 91
2018-06-19 00:00:00 17.8 3 Oeste 8 Oeste 0 -- -- 90
2018-06-18 23:00:00 18.4 4 Norte 10 Norte 0 -- -- 87
2018-06-18 22:00:00 18.6 3 Noroeste 7 Norte 0 -- -- 84
2018-06-18 21:00:00 18.8 4 Nordeste 8 Norte 0 -- -- 81
2018-06-18 20:00:00 19.1 2 Oeste 7 Este 0 -- -- 82
2018-06-18 19:00:00 18.9 4 Este 13 Nordeste 0 -- -- 84
2018-06-18 18:00:00 18.6 6 Norte 21 Nordeste 0 -- -- 86
2018-06-18 17:00:00 18.8 10 Norte 24 Nordeste 0 -- -- 90
2018-06-18 16:00:00 20.4 12 Norte 31 Nordeste 0 -- -- 86
2018-06-18 15:00:00 21.2 12 Norte 22 Noroeste 0 -- -- 79
2018-06-18 14:00:00 20.8 11 Noroeste 20 Noroeste 0 -- -- 79
2018-06-18 13:00:00 20.6 9 Noroeste 21 Oeste 0 -- -- 78
2018-06-18 12:00:00 19.9 8 Noroeste 15 Noroeste 0 -- -- 79
2018-06-18 11:00:00 19.3 3 Oeste 14 Sur 0 -- -- 79
2018-06-18 10:00:00 17.8 9 Sur 14 Sudeste 0 -- -- 87
2018-06-18 09:00:00 16 6 Sur 14 Sur 0 -- -- 93
2018-06-18 08:00:00 14.6 8 Sur 15 Sudeste 0 -- -- 96
2018-06-18 07:00:00 14 7 Sur 17 Sur 0 -- -- 97
2018-06-18 06:00:00 14 6 Sur 13 Sudeste 0 -- -- 98
2018-06-18 05:00:00 13.4 5 Sur 10 Sur 0 -- -- 98
2018-06-18 04:00:00 13.4 6 Sur 10 Sur 0 -- -- 97
2018-06-18 03:00:00 13.5 6 Sur 10 Sur 0 -- -- 96
2018-06-18 02:00:00 13.8 6 Sur 9 Sur 0 -- -- 95
2018-06-18 01:00:00 14.6 5 Sur 9 Sur 0 -- -- 94
2018-06-18 00:00:00 15.4 5 Sur 8 Sur 0 -- -- 92
2018-06-17 23:00:00 16.3 0 Calma 4 Noroeste 0 -- -- 87
2018-06-17 22:00:00 18 2 Norte 12 Nordeste 0 -- -- 80
2018-06-17 21:00:00 19.2 5 Nordeste 13 Este 0 -- -- 74
2018-06-17 20:00:00 19.6 6 Nordeste 14 Nordeste 0 -- -- 73
2018-06-17 19:00:00 19.8 8 Nordeste 16 Nordeste 0 -- -- 73
2018-06-17 18:00:00 20.3 9 Nordeste 20 Norte 0 -- -- 71
2018-06-17 17:00:00 20.2 10 Nordeste 27 Este 0 -- -- 73
2018-06-17 16:00:00 20.3 13 Nordeste 20 Nordeste 0 -- -- 72
2018-06-17 15:00:00 20.3 9 Nordeste 18 Nordeste 0 -- -- 73
2018-06-17 14:00:00 19.9 10 Nordeste 19 Nordeste 0 -- -- 75
2018-06-17 13:00:00 20.1 11 Nordeste 22 Nordeste 0 -- -- 75
2018-06-17 12:00:00 19.8 10 Nordeste 19 Norte 0 -- -- 79
2018-06-17 11:00:00 19.4 6 Noroeste 13 Noroeste 0 -- -- 76
2018-06-17 10:00:00 18.4 6 Sudoeste 12 Sudoeste 0 -- -- 86
2018-06-17 09:00:00 16.2 6 Sudeste 11 Sudeste 0 -- -- 96
2018-06-17 08:00:00 15.1 5 Sur 9 Sudeste 0 -- -- 97
2018-06-17 07:00:00 14.5 3 Sur 12 Sudeste 0 -- -- 97
2018-06-17 06:00:00 14.1 6 Sur 13 Sur 0 -- -- 97
2018-06-17 05:00:00 13.7 8 Sur 12 Sur 0 -- -- 96
2018-06-17 04:00:00 14 6 Sur 10 Sur 0 -- -- 96
2018-06-17 03:00:00 15 6 Sur 9 Sur 0 -- -- 94
2018-06-17 02:00:00 15.6 3 Sur 7 Sudeste 0 -- -- 92
2018-06-17 01:00:00 16.3 5 Sur 8 Sudeste 0 -- -- 91
2018-06-17 00:00:00 16.9 0 Calma 5 Noroeste 0 -- -- 88
2018-06-16 23:00:00 17.3 3 Sudoeste 6 Noroeste 0 -- -- 84
2018-06-16 22:00:00 17.6 4 Noroeste 12 Noroeste 0 -- -- 82
2018-06-16 21:00:00 18.4 6 Norte 12 Nordeste 0 -- -- 76
2018-06-16 20:00:00 18.6 7 Norte 15 Norte 0 -- -- 76
2018-06-16 19:00:00 19.2 8 Norte 17 Norte 0 -- -- 75
2018-06-16 18:00:00 20 8 Nordeste 19 Este 0 -- -- 76
2018-06-16 17:00:00 19.6 10 Nordeste 20 Nordeste 0 -- -- 77
2018-06-16 16:00:00 19.9 9 Nordeste 18 Nordeste 0 -- -- 76
2018-06-16 15:00:00 20 6 Nordeste 14 Nordeste 0 -- -- 79
2018-06-16 14:00:00 19.1 9 Nordeste 18 Este 0 -- -- 79
2018-06-16 13:00:00 19.8 10 Nordeste 17 Este 0 -- -- 79
2018-06-16 12:00:00 19 9 Nordeste 17 Norte 0 -- -- 80
2018-06-16 11:00:00 18 4 Norte 9 Noroeste 0 -- -- 88
2018-06-16 10:00:00 16.9 3 Sudeste 8 Sur 0 -- -- 98
2018-06-16 09:00:00 16.2 3 Sur 5 Sudeste 0 -- -- 99
2018-06-16 08:00:00 15.5 0 Calma 5 Sudoeste 0.4 -- -- 99
2018-06-16 07:00:00 15.4 0 Calma 6 Sur 0 -- -- 99
2018-06-16 06:00:00 15.3 0 Calma 3 Noroeste 0 -- -- 99
2018-06-16 05:00:00 15.1 2 Noroeste 4 Noroeste 0 -- -- 99
2018-06-16 04:00:00 15 0 Calma 4 Noroeste 0 -- -- 99
2018-06-16 03:00:00 15.3 0 Calma 7 Sudeste 0 -- -- 99
2018-06-16 02:00:00 15.5 4 Sur 10 Sudoeste 0 -- -- 99
2018-06-16 01:00:00 15.5 3 Sudoeste 6 Sur 0 -- -- 99
2018-06-16 00:00:00 15.6 3 Sudoeste 5 Oeste 0.2 -- -- 98
2018-06-15 23:00:00 15.5 3 Noroeste 10 Noroeste 0.4 -- -- 98
2018-06-15 22:00:00 15.7 5 Noroeste 21 Norte 0.6 -- -- 97
2018-06-15 21:00:00 16.5 6 Norte 17 Norte 0.6 -- -- 96
2018-06-15 20:00:00 17.4 6 Norte 14 Norte 0.2 -- -- 93
2018-06-15 19:00:00 18.1 9 Nordeste 20 Norte 0 -- -- 91
2018-06-15 18:00:00 19.8 9 Noroeste 23 Noroeste 0 -- -- 84
2018-06-15 17:00:00 20.3 6 Oeste 19 Noroeste 0 -- -- 83
2018-06-15 16:00:00 20.6 9 Norte 19 Noroeste 0 -- -- 78
2018-06-15 15:00:00 19.9 10 Noroeste 18 Noroeste 0 -- -- 82
2018-06-15 14:00:00 19.9 6 Norte 14 Noroeste 0 -- -- 76
2018-06-15 13:00:00 18.7 8 Este 14 Oeste 0 -- -- 86
2018-06-15 12:00:00 17.8 5 Sudoeste 11 Sudoeste 0 -- -- 90
2018-06-15 11:00:00 16.9 4 Noroeste 12 Noroeste 0 -- -- 91
2018-06-15 10:00:00 16.5 3 Sudeste 10 Sudeste 0 -- -- 91
2018-06-15 09:00:00 15.6 4 Sur 9 Sur 0 -- -- 95
2018-06-15 08:00:00 14.8 3 Sur 6 Sur 0 -- -- 98
2018-06-15 07:00:00 14 7 Sur 9 Sur 0 -- -- 98
2018-06-15 06:00:00 13.7 0 Calma 8 Sur 0 -- -- 98
2018-06-15 05:00:00 13.5 0 Calma 5 Sudeste 0 -- -- 98
2018-06-15 04:00:00 13.3 4 Sur 8 Sur 0 -- -- 97
2018-06-15 03:00:00 13.3 3 Sur 7 Sur 0 -- -- 97
2018-06-15 02:00:00 13.2 4 Sur 6 Sur 0 -- -- 96
2018-06-15 01:00:00 13.9 2 Noroeste 5 Sur 0 -- -- 93
2018-06-15 00:00:00 14.4 0 Calma 5 Sur 0 -- -- 93
2018-06-14 23:00:00 15.4 2 Noroeste 5 Noroeste 0 -- -- 89
2018-06-14 22:00:00 17.1 0 Calma 10 Nordeste 0 -- -- 83
2018-06-14 21:00:00 18.1 7 Nordeste 13 Este 0 -- -- 78
2018-06-14 20:00:00 18.8 7 Nordeste 13 Nordeste 0 -- -- 74
2018-06-14 19:00:00 19.2 7 Nordeste 19 Este 0 -- -- 76
2018-06-14 18:00:00 19.1 11 Nordeste 19 Nordeste 0 -- -- 77
2018-06-14 17:00:00 19.2 13 Este 23 Nordeste 0 -- -- 77
2018-06-14 16:00:00 19.6 10 Nordeste 20 Nordeste 0 -- -- 77
2018-06-14 15:00:00 19 11 Nordeste 24 Nordeste 0 -- -- 77
2018-06-14 14:00:00 19.5 13 Nordeste 25 Nordeste 0 -- -- 74
2018-06-14 13:00:00 19.9 5 Norte 15 Este 0 -- -- 72
2018-06-14 12:00:00 19.1 4 Norte 10 Nordeste 0 -- -- 72
2018-06-14 11:00:00 18.4 6 Oeste 13 Noroeste 0 -- -- 71
2018-06-14 10:00:00 16 8 Sudeste 18 Sudeste 0 -- -- 88
2018-06-14 09:00:00 13.4 10 Sur 20 Sur 0 -- -- 95
2018-06-14 08:00:00 11.9 8 Sur 14 Sudeste 0 -- -- 98
2018-06-14 07:00:00 11 6 Sur 19 Sur 0 -- -- 98
2018-06-14 06:00:00 11.2 6 Sur 12 Sur 0 -- -- 98
2018-06-14 05:00:00 11.7 5 Sur 9 Sur 0 -- -- 98
2018-06-14 04:00:00 12.1 5 Sur 10 Sur 0 -- -- 97
2018-06-14 03:00:00 12.8 7 Sur 9 Sudeste 0 -- -- 96
2018-06-14 02:00:00 13.1 4 Sur 9 Sur 0 -- -- 96
2018-06-14 01:00:00 13.4 3 Sudeste 5 Sudeste 0 -- -- 94
2018-06-14 00:00:00 14.3 0 Calma 4 Sudeste 0 -- -- 90
2018-06-13 23:00:00 15.6 0 Calma 9 Oeste 0 -- -- 88
2018-06-13 22:00:00 16.5 4 Noroeste 13 Noroeste 0 -- -- 85
2018-06-13 21:00:00 18.1 6 Noroeste 16 Noroeste 0 -- -- 77
2018-06-13 20:00:00 19.2 9 Norte 19 Noroeste 0 -- -- 74
2018-06-13 19:00:00 19.5 11 Noroeste 25 Noroeste 0 -- -- 71
2018-06-13 18:00:00 19.4 13 Noroeste 24 Norte 0 -- -- 70
2018-06-13 17:00:00 19.7 14 Noroeste 26 Noroeste 0 -- -- 68
2018-06-13 16:00:00 19.4 17 Noroeste 27 Noroeste 0 -- -- 69
2018-06-13 15:00:00 19.5 15 Norte 27 Noroeste 0 -- -- 70
2018-06-13 14:00:00 19.9 15 Noroeste 31 Noroeste 0 -- -- 69
2018-06-13 13:00:00 19.7 21 Noroeste 32 Noroeste 0 -- -- 67
2018-06-13 12:00:00 18.4 13 Noroeste 29 Noroeste 0 -- -- 77
2018-06-13 11:00:00 18.3 11 Noroeste 27 Noroeste 0 -- -- 77
2018-06-13 10:00:00 17.7 10 Oeste 21 Oeste 0 -- -- 80
2018-06-13 09:00:00 17 9 Noroeste 22 Oeste 0 -- -- 82
2018-06-13 08:00:00 15.8 4 Oeste 17 Oeste 0 -- -- 84
2018-06-13 07:00:00 15.6 6 Oeste 22 Noroeste 0 -- -- 85
2018-06-13 06:00:00 16.3 14 Oeste 26 Oeste 0 -- -- 83
2018-06-13 05:00:00 16.4 10 Noroeste 29 Oeste 0 -- -- 85
2018-06-13 04:00:00 16.6 13 Noroeste 35 Oeste 0 -- -- 84
2018-06-13 03:00:00 16.8 15 Noroeste 32 Noroeste 0 -- -- 84
2018-06-13 02:00:00 16.9 13 Noroeste 28 Noroeste 0 -- -- 85
2018-06-13 01:00:00 16.9 15 Noroeste 31 Oeste 0 -- -- 86
2018-06-13 00:00:00 17 16 Oeste 31 Oeste 0 -- -- 87
2018-06-12 23:00:00 17.1 15 Oeste 35 Noroeste 0 -- -- 87
2018-06-12 22:00:00 17.1 14 Noroeste 34 Noroeste 0 -- -- 87
2018-06-12 21:00:00 17 18 Oeste 36 Oeste 0 -- -- 86
2018-06-12 20:00:00 17.3 15 Oeste 42 Oeste 0 -- -- 84
2018-06-12 19:00:00 17.9 24 Oeste 41 Noroeste 0 -- -- 79
2018-06-12 18:00:00 18.5 16 Noroeste 50 Oeste 0 -- -- 79
2018-06-12 17:00:00 19.7 23 Oeste 51 Noroeste 0.2 -- -- 73
2018-06-12 16:00:00 18.9 28 Oeste 51 Noroeste 0 -- -- 76
2018-06-12 15:00:00 17.6 24 Oeste 50 Oeste 0 -- -- 84
2018-06-12 14:00:00 16.8 24 Oeste 51 Noroeste 0 -- -- 92
2018-06-12 13:00:00 18.3 23 Oeste 44 Oeste 0 -- -- 86
2018-06-12 12:00:00 17.8 18 Noroeste 43 Oeste 0 -- -- 88
2018-06-12 11:00:00 17.6 17 Noroeste 38 Noroeste 0 -- -- 89
2018-06-12 10:00:00 17.9 18 Noroeste 38 Noroeste 0 -- -- 87
2018-06-12 09:00:00 17.5 17 Oeste 40 Noroeste 0 -- -- 89
2018-06-12 08:00:00 17.4 19 Oeste 38 Oeste 0 -- -- 90
2018-06-12 07:00:00 17.1 18 Oeste 41 Oeste 0.4 -- -- 92
2018-06-12 06:00:00 17.5 21 Noroeste 40 Noroeste 0.2 -- -- 90
2018-06-12 05:00:00 17.4 17 Noroeste 39 Oeste 0 -- -- 91
2018-06-12 04:00:00 17 17 Oeste 37 Oeste 2 -- -- 93
2018-06-12 03:00:00 17 16 Oeste 42 Oeste 1.8 -- -- 94
2018-06-12 02:00:00 17.3 8 Oeste 18 Oeste 0.2 -- -- 90
2018-06-12 01:00:00 17.9 8 Oeste 25 Oeste 0 -- -- 85
2018-06-12 00:00:00 17.9 11 Oeste 32 Noroeste 0 -- -- 85
2018-06-11 23:00:00 17.7 8 Oeste 17 Oeste 0 -- -- 83
2018-06-11 22:00:00 18.1 5 Sudoeste 14 Oeste 0 -- -- 76
2018-06-11 21:00:00 18.6 7 Oeste 19 Oeste 0 -- -- 71
2018-06-11 20:00:00 19.9 8 Noroeste 26 Noroeste 0 -- -- 63
2018-06-11 19:00:00 21.1 12 Noroeste 22 Noroeste 0 -- -- 66
2018-06-11 18:00:00 21.5 11 Noroeste 22 Noroeste 0 -- -- 59
2018-06-11 17:00:00 20.7 10 Noroeste 20 Noroeste 0 -- -- 68
2018-06-11 16:00:00 20.7 6 Norte 16 Oeste 0 -- -- 72
2018-06-11 15:00:00 19.2 8 Noroeste 21 Noroeste 0 -- -- 76
2018-06-11 14:00:00 18.5 6 Oeste 21 Oeste 0 -- -- 84
2018-06-11 13:00:00 18.5 7 Noroeste 23 Oeste 0 -- -- 81
2018-06-11 12:00:00 17.8 7 Noroeste 17 Oeste 0 -- -- 85
2018-06-11 11:00:00 16.9 3 Oeste 14 Oeste 0 -- -- 89
2018-06-11 10:00:00 16.2 6 Oeste 18 Oeste 0 -- -- 91
2018-06-11 09:00:00 15.8 5 Sudoeste 12 Oeste 1 -- -- 94
2018-06-11 08:00:00 15.6 4 Sudoeste 9 Sudoeste 0.2 -- -- 96
2018-06-11 07:00:00 15.7 4 Sudoeste 10 Oeste 1.6 -- -- 97
2018-06-11 06:00:00 15.8 5 Noroeste 9 Noroeste 0.4 -- -- 96
2018-06-11 05:00:00 15.7 4 Sur 9 Sur 0 -- -- 97
2018-06-11 04:00:00 15.7 4 Sur 8 Sur 0 -- -- 97
2018-06-11 03:00:00 15.7 4 Sur 8 Sudeste 0 -- -- 97
2018-06-11 02:00:00 15.8 5 Sur 8 Sur 0 -- -- 96
2018-06-11 01:00:00 16.2 4 Sur 8 Sur 0 -- -- 95
2018-06-11 00:00:00 16.7 0 Calma 5 Noroeste 0 -- -- 92
2018-06-10 23:00:00 17 0 Calma 5 Noroeste 0 -- -- 93
2018-06-10 22:00:00 17.7 0 Calma 5 Noroeste 0 -- -- 88
2018-06-10 21:00:00 18.4 0 Calma 12 Nordeste 0 -- -- 81
2018-06-10 20:00:00 18.8 10 Nordeste 22 Nordeste 0 -- -- 78
2018-06-10 19:00:00 19.3 13 Este 18 Nordeste 0.2 -- -- 79
2018-06-10 18:00:00 18.7 8 Nordeste 17 Este 0 -- -- 82
2018-06-10 17:00:00 18.7 3 Norte 9 Nordeste 0.2 -- -- 85
2018-06-10 16:00:00 18 5 Sur 18 Sur 0.4 -- -- 86
2018-06-10 15:00:00 20 10 Nordeste 21 Nordeste 0 -- -- 70
2018-06-10 14:00:00 20 12 Nordeste 19 Este 0 -- -- 75
2018-06-10 13:00:00 20.6 10 Nordeste 17 Nordeste 0 -- -- 71
2018-06-10 12:00:00 19.9 12 Nordeste 19 Este 0 -- -- 74
2018-06-10 11:00:00 20.8 6 Nordeste 12 Nordeste 0 -- -- 69
2018-06-10 10:00:00 18.9 2 Nordeste 5 Sudeste 0 -- -- 73
2018-06-10 09:00:00 17.4 3 Este 7 Oeste 0 -- -- 79
2018-06-10 08:00:00 14.6 4 Sur 10 Sur 0 -- -- 97
2018-06-10 07:00:00 12.6 5 Sur 8 Sudeste 0 -- -- 98
2018-06-10 06:00:00 13.1 3 Noroeste 9 Sur 0 -- -- 97
2018-06-10 05:00:00 14 4 Sur 13 Sudeste 0 -- -- 97
2018-06-10 04:00:00 14.1 7 Sur 14 Sur 0 -- -- 97
2018-06-10 03:00:00 15.1 4 Sur 10 Sudeste 0 -- -- 97
2018-06-10 02:00:00 15.5 3 Nordeste 8 Oeste 0 -- -- 96
2018-06-10 01:00:00 16.8 3 Oeste 9 Sur 0 -- -- 94
2018-06-10 00:00:00 17.8 3 Noroeste 13 Sudoeste 0 -- -- 93
2018-06-09 23:00:00 18.2 4 Sur 10 Sudoeste 0 -- -- 91
2018-06-09 22:00:00 18.5 3 Noroeste 13 Este 0 -- -- 89
2018-06-09 21:00:00 18.8 10 Este 23 Este 0 -- -- 86
2018-06-09 20:00:00 19.2 18 Nordeste 28 Nordeste 0 -- -- 83
2018-06-09 19:00:00 20 15 Nordeste 26 Nordeste 0 -- -- 80
2018-06-09 18:00:00 19.2 15 Nordeste 23 Este 0 -- -- 83
2018-06-09 17:00:00 18.9 18 Este 28 Este 0 -- -- 82
2018-06-09 16:00:00 19.8 19 Nordeste 28 Nordeste 0 -- -- 79
2018-06-09 15:00:00 19.7 16 Nordeste 26 Este 0 -- -- 77
2018-06-09 14:00:00 20.3 12 Nordeste 24 Nordeste 0 -- -- 75
2018-06-09 13:00:00 19.8 10 Nordeste 22 Este 0 -- -- 72
2018-06-09 12:00:00 20.2 10 Nordeste 21 Nordeste 0 -- -- 75
2018-06-09 11:00:00 19.9 10 Nordeste 17 Nordeste 0 -- -- 78
2018-06-09 10:00:00 19 0 Calma 7 Sur 0 -- -- 83
2018-06-09 09:00:00 17.6 5 Sur 9 Sudeste 0 -- -- 94
2018-06-09 08:00:00 15.1 3 Sur 8 Sudeste 0 -- -- 98
2018-06-09 07:00:00 14.4 6 Sudoeste 10 Sudoeste 0 -- -- 98
2018-06-09 06:00:00 15.1 2 Sur 6 Noroeste 0 -- -- 98
2018-06-09 05:00:00 15.7 2 Sur 11 Noroeste 0 -- -- 97
2018-06-09 04:00:00 16.2 6 Noroeste 17 Sudeste 0 -- -- 97
2018-06-09 03:00:00 16.5 10 Sur 15 Sur 0 -- -- 99
2018-06-09 02:00:00 16.5 5 Sur 10 Sur 0 -- -- 99
2018-06-09 01:00:00 16.6 4 Noroeste 7 Noroeste 0 -- -- 99
2018-06-09 00:00:00 16.9 2 Sur 10 Sudoeste 0 -- -- 98
2018-06-08 23:00:00 16.8 5 Sur 8 Sudoeste 0 -- -- 97
2018-06-08 22:00:00 17.7 4 Sur 12 Sudeste 0.2 -- -- 96
2018-06-08 21:00:00 18.1 3 Sur 12 Sudeste 1.6 -- -- 96
2018-06-08 20:00:00 17.9 4 Norte 19 Oeste 4.4 -- -- 95
2018-06-08 19:00:00 19 10 Noroeste 18 Noroeste 0 -- -- 92
2018-06-08 18:00:00 20.9 7 Norte 17 Noroeste 5.6 -- -- 90
2018-06-08 17:00:00 21.5 8 Nordeste 17 Norte 0 -- -- 81
2018-06-08 16:00:00 21.3 7 Norte 22 Nordeste 0 -- -- 83
2018-06-08 15:00:00 22 12 Norte 19 Norte 0 -- -- 78
2018-06-08 14:00:00 22.1 9 Nordeste 14 Nordeste 0 -- -- 78
2018-06-08 13:00:00 20.4 6 Nordeste 10 Nordeste 0 -- -- 84
2018-06-08 12:00:00 19.3 5 Este 8 Este 0 -- -- 90
2018-06-08 11:00:00 18.8 3 Nordeste 10 Nordeste 0.2 -- -- 91
2018-06-08 10:00:00 18.4 3 Este 8 Nordeste 0 -- -- 91
2018-06-08 09:00:00 17.6 5 Sur 17 Sur 0 -- -- 96
2018-06-08 08:00:00 16.5 7 Sur 14 Sur 0 -- -- 97
2018-06-08 07:00:00 16.4 7 Sur 15 Sudeste 0 -- -- 97
2018-06-08 06:00:00 16.5 7 Sur 12 Sur 0 -- -- 97
2018-06-08 05:00:00 16.5 5 Sur 11 Sudeste 0 -- -- 97
2018-06-08 04:00:00 17 5 Sudeste 9 Sur 0 -- -- 97
2018-06-08 03:00:00 16.9 4 Sur 10 Sur 0 -- -- 96
2018-06-08 02:00:00 17.1 4 Sur 9 Sudeste 0 -- -- 95
2018-06-08 01:00:00 17.7 5 Sudoeste 9 Sudoeste 0 -- -- 95
2018-06-08 00:00:00 17.7 4 Noroeste 7 Este 0 -- -- 94
2018-06-07 23:00:00 17.8 2 Sur 9 Este 0 -- -- 92
2018-06-07 22:00:00 18.4 8 Este 16 Este 0 -- -- 91
2018-06-07 21:00:00 18.6 13 Este 21 Este 0 -- -- 89
2018-06-07 20:00:00 19.1 13 Nordeste 23 Nordeste 0 -- -- 85
2018-06-07 19:00:00 19.5 11 Nordeste 22 Este 0 -- -- 84
2018-06-07 18:00:00 19.3 15 Este 27 Este 0 -- -- 83
2018-06-07 17:00:00 19.4 16 Nordeste 24 Nordeste 0 -- -- 85
2018-06-07 16:00:00 19 9 Nordeste 19 Nordeste 0.6 -- -- 90
2018-06-07 15:00:00 20 10 Nordeste 21 Nordeste 0 -- -- 81
2018-06-07 14:00:00 20.2 8 Nordeste 19 Nordeste 0 -- -- 75
2018-06-07 13:00:00 20.4 9 Nordeste 21 Este 0 -- -- 76
2018-06-07 12:00:00 19.8 10 Nordeste 20 Este 0 -- -- 76
2018-06-07 11:00:00 19.7 8 Nordeste 13 Nordeste 0 -- -- 77
2018-06-07 10:00:00 18 5 Sudeste 12 Sudeste 0 -- -- 86
2018-06-07 09:00:00 16.6 4 Sudeste 10 Sudeste 0 -- -- 94
2018-06-07 08:00:00 16.4 3 Sudeste 8 Sur 0 -- -- 93
2018-06-07 07:00:00 16.1 4 Sur 7 Sudeste 0 -- -- 93
2018-06-07 06:00:00 16.3 3 Sur 7 Sudoeste 0 -- -- 92
2018-06-07 05:00:00 16.8 4 Sudoeste 10 Oeste 0 -- -- 88
2018-06-07 04:00:00 16.8 5 Sudoeste 13 Sudoeste 0 -- -- 87
2018-06-07 03:00:00 16.7 4 Sudoeste 9 Sudoeste 0 -- -- 87
2018-06-07 02:00:00 16.6 4 Sudoeste 10 Sudoeste 0 -- -- 89
2018-06-07 01:00:00 16.7 4 Sudoeste 12 Sudoeste 0 -- -- 89
2018-06-07 00:00:00 16.8 6 Oeste 15 Sudoeste 0 -- -- 89
2018-06-06 23:00:00 17.1 6 Oeste 15 Oeste 0 -- -- 87
2018-06-06 22:00:00 17.3 7 Oeste 15 Oeste 0 -- -- 86
2018-06-06 21:00:00 17.4 5 Oeste 20 Oeste 0 -- -- 88
2018-06-06 20:00:00 18.2 9 Oeste 18 Oeste 0 -- -- 82
2018-06-06 19:00:00 18.6 9 Noroeste 23 Noroeste 0 -- -- 81
2018-06-06 18:00:00 20 15 Noroeste 28 Noroeste 0 -- -- 75
2018-06-06 17:00:00 20 17 Noroeste 28 Noroeste 0 -- -- 75
2018-06-06 16:00:00 20.7 14 Noroeste 25 Noroeste 0 -- -- 73
2018-06-06 15:00:00 20.7 14 Noroeste 28 Noroeste 0 -- -- 75
2018-06-06 14:00:00 20.3 12 Noroeste 25 Oeste 0 -- -- 72
2018-06-06 13:00:00 19.3 12 Noroeste 22 Oeste 0 -- -- 76
2018-06-06 12:00:00 18.8 10 Noroeste 23 Noroeste 0 -- -- 76
2018-06-06 11:00:00 17.9 13 Oeste 25 Noroeste 0 -- -- 79
2018-06-06 10:00:00 14.8 6 Sur 14 Sur 0 -- -- 97
2018-06-06 09:00:00 12.6 8 Sur 12 Sur 0 -- -- 100
2018-06-06 08:00:00 11.5 5 Sur 12 Sudeste 0 -- -- 100
2018-06-06 07:00:00 10.4 6 Sur 12 Sur 0 -- -- 99
2018-06-06 06:00:00 10.7 5 Sur 12 Sur 0 -- -- 99
2018-06-06 05:00:00 11.2 5 Sur 13 Sur 0 -- -- 98
2018-06-06 04:00:00 11.6 5 Sur 13 Sur 0 -- -- 99
2018-06-06 03:00:00 12.5 4 Sur 8 Sudoeste 0 -- -- 97
2018-06-06 02:00:00 13.1 6 Sur 10 Sur 0 -- -- 97
2018-06-06 01:00:00 14 5 Sur 7 Sur 0 -- -- 95
2018-06-06 00:00:00 14.9 4 Sur 8 Sudeste 0 -- -- 94
2018-06-05 23:00:00 15.7 0 Calma 5 Noroeste 0 -- -- 92
2018-06-05 22:00:00 16.3 3 Noroeste 4 Noroeste 0 -- -- 89
2018-06-05 21:00:00 16.7 3 Este 8 Nordeste 0 -- -- 84
2018-06-05 20:00:00 16.8 5 Nordeste 8 Nordeste 0 -- -- 82
2018-06-05 19:00:00 16.9 2 Noroeste 6 Nordeste 0 -- -- 81
2018-06-05 18:00:00 16.5 3 Este 12 Sudoeste 0 -- -- 85
2018-06-05 17:00:00 16.5 3 Sur 11 Sudoeste 0 -- -- 88
2018-06-05 16:00:00 16.9 5 Oeste 18 Nordeste 0 -- -- 82
2018-06-05 15:00:00 17.9 9 Norte 24 Este 0 -- -- 75
2018-06-05 14:00:00 18.3 9 Nordeste 18 Nordeste 0 -- -- 78
2018-06-05 13:00:00 17.4 8 Nordeste 14 Nordeste 0 -- -- 79
2018-06-05 12:00:00 16.7 8 Nordeste 12 Este 0.2 -- -- 83
2018-06-05 11:00:00 14.3 6 Sur 11 Sur 0 -- -- 99
2018-06-05 10:00:00 12.9 4 Sur 9 Sur 1.8 -- -- 98
2018-06-05 09:00:00 12.7 5 Sur 8 Sur 1.2 -- -- 97
2018-06-05 08:00:00 12.8 3 Sur 8 Sur 2 -- -- 96
2018-06-05 07:00:00 12.9 4 Oeste 8 Oeste 0.4 -- -- 95
2018-06-05 06:00:00 13 0 Calma 6 Oeste 0 -- -- 95
2018-06-05 05:00:00 13.2 2 Sudoeste 15 Sudoeste 0.2 -- -- 94
2018-06-05 04:00:00 13.5 6 Sudoeste 19 Oeste 0 -- -- 93
2018-06-05 03:00:00 13.6 8 Oeste 18 Oeste 0.2 -- -- 96
2018-06-05 02:00:00 14 3 Sudoeste -- -- 0 -- -- 98
2018-06-05 01:00:00 14.1 3 Sudoeste 8 Sur 0 -- -- 98
2018-06-05 00:00:00 14.2 3 Sudoeste 7 Sur 0.2 -- -- 98
2018-06-04 23:00:00 14.3 5 Sur 8 Sudeste 0 -- -- 98
2018-06-04 22:00:00 14.3 4 Sudoeste 8 Sur 0.2 -- -- 97
2018-06-04 21:00:00 14.5 2 Sur 9 Sur 1.8 -- -- 96
2018-06-04 20:00:00 15.1 5 Sur 10 Sur 1.2 -- -- 95
2018-06-04 19:00:00 15.5 5 Sudoeste 15 Oeste 2.6 -- -- 93
2018-06-04 18:00:00 16.3 3 Noroeste 7 Este 0 -- -- 89
2018-06-04 17:00:00 15.9 4 Noroeste 12 Noroeste 2.6 -- -- 94
2018-06-04 16:00:00 16 5 Oeste 13 Oeste 0.2 -- -- 92
2018-06-04 15:00:00 16.2 8 Noroeste 15 Noroeste 0 -- -- 90
2018-06-04 14:00:00 17.6 9 Nordeste 14 Nordeste 0 -- -- 81
2018-06-04 13:00:00 16.7 5 Norte 14 Norte 0 -- -- 89
2018-06-04 12:00:00 17.2 4 Noroeste 10 Noroeste 0 -- -- 86
2018-06-04 11:00:00 16.8 2 Sur 8 Noroeste 0 -- -- 89
2018-06-04 10:00:00 15.9 5 Norte 9 Noroeste 0 -- -- 95
2018-06-04 09:00:00 15.2 4 Sur 8 Sur 0 -- -- 98
2018-06-04 08:00:00 14.8 3 Sur 9 Sudeste 0 -- -- 98
2018-06-04 07:00:00 14.8 2 Sur 8 Sur 0 -- -- 98
2018-06-04 06:00:00 14.8 4 Sur 11 Sudeste 0 -- -- 98
2018-06-04 05:00:00 14.8 5 Sur 9 Sur 0 -- -- 97
2018-06-04 04:00:00 15 4 Sur 13 Sur 0 -- -- 96
2018-06-04 03:00:00 15.1 5 Sur 12 Sudoeste 0 -- -- 94
2018-06-04 02:00:00 14.9 3 Oeste 16 Oeste 0.4 -- -- 95
2018-06-04 01:00:00 15.8 8 Noroeste 18 Noroeste 1.2 -- -- 96
2018-06-04 00:00:00 16.6 4 Oeste 16 Oeste 0 -- -- 94
2018-06-03 23:00:00 16.7 7 Oeste 15 Oeste 0 -- -- 93
2018-06-03 22:00:00 16.8 4 Oeste 13 Oeste 0 -- -- 94
2018-06-03 21:00:00 17.1 5 Oeste 18 Noroeste 0 -- -- 94
2018-06-03 20:00:00 17.6 9 Noroeste 18 Oeste 0 -- -- 93
2018-06-03 19:00:00 17.8 5 Noroeste 14 Oeste 0 -- -- 94
2018-06-03 18:00:00 18.1 3 Noroeste 6 Noroeste 0.8 -- -- 95
2018-06-03 17:00:00 18.4 4 Oeste 14 Noroeste 0.2 -- -- 91
2018-06-03 16:00:00 18.6 7 Noroeste 17 Noroeste 0 -- -- 91
2018-06-03 15:00:00 18.8 9 Noroeste 17 Nordeste 0 -- -- 88
2018-06-03 14:00:00 19.5 9 Nordeste 16 Norte 0 -- -- 86
2018-06-03 13:00:00 19.4 8 Nordeste 15 Noroeste 0 -- -- 89
2018-06-03 12:00:00 19.8 9 Noroeste 14 Noroeste 0 -- -- 89
2018-06-03 11:00:00 18.5 5 Noroeste 9 Oeste 0 -- -- 95
2018-06-03 10:00:00 17.8 5 Oeste 9 Oeste 0 -- -- 97
2018-06-03 09:00:00 16.9 0 Calma 6 Sur 0 -- -- 99
2018-06-03 08:00:00 16.4 0 Calma 7 Noroeste 0 -- -- 98
2018-06-03 07:00:00 15.6 0 Calma 4 Sudoeste 0 -- -- 97
2018-06-03 06:00:00 16.7 3 Sur 12 Sur 0 -- -- 97
2018-06-03 05:00:00 17 4 Sudoeste 13 Sur 0 -- -- 96
2018-06-03 04:00:00 17.5 3 Sudeste 13 Sur 0 -- -- 96
2018-06-03 03:00:00 17.6 5 Sur 9 Sur 0 -- -- 95
2018-06-03 02:00:00 17.7 0 Calma 14 Oeste 0 -- -- 94
2018-06-03 01:00:00 17.8 7 Noroeste 13 Oeste 0 -- -- 93
2018-06-03 00:00:00 18.1 8 Oeste 14 Oeste 0 -- -- 92
2018-06-02 23:00:00 18.7 5 Noroeste 12 Noroeste 0 -- -- 91
2018-06-02 22:00:00 19.2 5 Noroeste 14 Nordeste 0 -- -- 90
2018-06-02 21:00:00 19.6 5 Nordeste 9 Nordeste 0 -- -- 88
2018-06-02 20:00:00 19.5 3 Norte 8 Nordeste 0 -- -- 87
2018-06-02 19:00:00 19.3 6 Nordeste 15 Norte 0 -- -- 88
2018-06-02 18:00:00 19.5 8 Nordeste 23 Nordeste 0 -- -- 89
2018-06-02 17:00:00 20.2 10 Nordeste 23 Nordeste 0 -- -- 87
2018-06-02 16:00:00 20.5 10 Nordeste 23 Nordeste 0 -- -- 85
2018-06-02 15:00:00 20.7 14 Nordeste 24 Nordeste 0 -- -- 84
2018-06-02 14:00:00 20.3 12 Nordeste 23 Nordeste 0 -- -- 84
2018-06-02 13:00:00 20.9 12 Nordeste 17 Nordeste 0.2 -- -- 81
2018-06-02 12:00:00 20.7 5 Este 10 Este 0 -- -- 81
2018-06-02 11:00:00 19.1 3 Sudeste 10 Sur 0 -- -- 92
2018-06-02 10:00:00 17 5 Sudeste 9 Sudeste 0 -- -- 96
2018-06-02 09:00:00 16.3 3 Noroeste 6 Oeste 0 -- -- 97
2018-06-02 08:00:00 16 3 Noroeste 4 Noroeste 0 -- -- 97
2018-06-02 07:00:00 16 3 Sur 8 Sudoeste 0 -- -- 97
2018-06-02 06:00:00 15.9 4 Sur 8 Oeste 0 -- -- 97
2018-06-02 05:00:00 15.9 4 Sudoeste 6 Sur 0 -- -- 98
2018-06-02 04:00:00 16 2 Norte 5 Norte 0 -- -- 97
2018-06-02 03:00:00 16 0 Calma 3 Noroeste 0 -- -- 97
2018-06-02 02:00:00 16 2 Oeste 7 Sudoeste 0 -- -- 97
2018-06-02 01:00:00 16 4 Sudoeste 9 Sudoeste 0 -- -- 97
2018-06-02 00:00:00 16.2 5 Noroeste 13 Oeste 0.2 -- -- 97
2018-06-01 23:00:00 17.1 3 Noroeste 9 Nordeste 0 -- -- 97
2018-06-01 22:00:00 17.4 4 Nordeste 10 Nordeste 0 -- -- 96
2018-06-01 21:00:00 17.7 3 Nordeste 8 Nordeste 0 -- -- 96
2018-06-01 20:00:00 17.6 4 Noroeste 8 Norte 0.2 -- -- 96
2018-06-01 19:00:00 17.8 5 Nordeste 10 Noroeste 0 -- -- 96
2018-06-01 18:00:00 17.4 6 Noroeste 8 Noroeste 0.2 -- -- 96
2018-06-01 17:00:00 17.3 5 Este 13 Nordeste 0 -- -- 93
2018-06-01 16:00:00 17.7 7 Este 17 Nordeste 0 -- -- 91
2018-06-01 15:00:00 17.9 9 Nordeste 16 Nordeste 0 -- -- 92
2018-06-01 14:00:00 17.8 5 Nordeste 10 Nordeste 0 -- -- 95
2018-06-01 13:00:00 16.5 2 Este 5 Este 0 -- -- 98
2018-06-01 12:00:00 15.6 2 Este 3 Sur 0.2 -- -- 98
2018-06-01 11:00:00 15.3 2 Sudeste 7 Sudeste 0 -- -- 97
2018-06-01 10:00:00 15.3 0 Calma 4 Noroeste 0 -- -- 95
2018-06-01 09:00:00 14.9 3 Sudeste 10 Sur 0 -- -- 95
2018-06-01 08:00:00 14.5 3 Sur 10 Sur 0 -- -- 96
2018-06-01 07:00:00 14 4 Sur 9 Sur 0 -- -- 96
2018-06-01 06:00:00 13.9 4 Sur 9 Sur 0 -- -- 96
2018-06-01 05:00:00 13.7 5 Sur 11 Sur 0 -- -- 97
2018-06-01 04:00:00 13.1 5 Sur 10 Sur 0 -- -- 97
2018-06-01 03:00:00 12.7 0 Calma 8 Sur 0 -- -- 95
2018-06-01 02:00:00 13.6 2 Sur 8 Sudoeste 0 -- -- 94
2018-06-01 01:00:00 14.3 4 Sur 9 Sur 0 -- -- 93
2018-06-01 00:00:00 14.7 3 Sur 6 Sudeste 0 -- -- 92
2018-05-31 23:00:00 15.6 0 Calma 4 Sudeste 0 -- -- 87
2018-05-31 22:00:00 16.9 0 Calma 9 Nordeste 0 -- -- 83
2018-05-31 21:00:00 17.4 4 Nordeste 13 Este 0 -- -- 78
2018-05-31 20:00:00 17.6 6 Nordeste 14 Este 0 -- -- 78
2018-05-31 19:00:00 17.9 6 Nordeste 15 Nordeste 0 -- -- 77
2018-05-31 18:00:00 18.1 8 Nordeste 16 Este 0 -- -- 75
2018-05-31 17:00:00 17.7 9 Nordeste 16 Este 0 -- -- 76
2018-05-31 16:00:00 18 7 Nordeste 17 Nordeste 0 -- -- 76
2018-05-31 15:00:00 18 11 Nordeste 22 Este 0 -- -- 75
2018-05-31 14:00:00 18.3 12 Nordeste 17 Este 0 -- -- 75
2018-05-31 13:00:00 17.9 2 Sur 8 Sudeste 0 -- -- 80
2018-05-31 12:00:00 17.3 4 Sur 14 Sur 0.2 -- -- 83
2018-05-31 11:00:00 15.9 8 Sur 14 Sur 0 -- -- 94
2018-05-31 10:00:00 15.1 8 Sur 13 Sur 0.2 -- -- 98
2018-05-31 09:00:00 14.8 0 Calma 4 Sur 0.2 -- -- 98
2018-05-31 08:00:00 14.7 3 Sur 4 Sur 0.2 -- -- 98
2018-05-31 07:00:00 14.8 0 Calma 4 Noroeste 0.2 -- -- 98
2018-05-31 06:00:00 14.9 0 Calma 4 Sur 0.2 -- -- 97
2018-05-31 05:00:00 15 0 Calma 5 Sudoeste 0 -- -- 96
2018-05-31 04:00:00 15.1 3 Sur 5 Sur 0 -- -- 95
2018-05-31 03:00:00 15.4 2 Sur 5 Sur 0.2 -- -- 94
2018-05-31 02:00:00 15.6 4 Sur 8 Sur 0 -- -- 91
2018-05-31 01:00:00 15.8 6 Sur 8 Sur 0 -- -- 91
2018-05-31 00:00:00 16.1 3 Sur 6 Sudeste 0 -- -- 90
2018-05-30 23:00:00 16.4 3 Noroeste 8 Oeste 0 -- -- 87
2018-05-30 22:00:00 16.6 4 Sudoeste 6 Sudoeste 0 -- -- 86
2018-05-30 21:00:00 17 2 Noroeste 14 Noroeste 0 -- -- 84
2018-05-30 20:00:00 17.5 8 Noroeste 16 Noroeste 0 -- -- 80
2018-05-30 19:00:00 18 6 Nordeste 15 Norte 0 -- -- 80
2018-05-30 18:00:00 17.8 6 Norte 15 Norte 0 -- -- 80
2018-05-30 17:00:00 18.1 6 Nordeste 12 Nordeste 0 -- -- 77
2018-05-30 16:00:00 18.4 6 Nordeste 14 Nordeste 0 -- -- 77
2018-05-30 15:00:00 18.3 9 Este 14 Este 0 -- -- 77
2018-05-30 14:00:00 18.2 6 Nordeste 12 Noroeste 0 -- -- 81
2018-05-30 13:00:00 17.9 5 Nordeste 10 Este 0 -- -- 84
2018-05-30 12:00:00 17.2 4 Este 7 Nordeste 0 -- -- 84
2018-05-30 11:00:00 16.7 0 Calma 5 Sur 0 -- -- 87
2018-05-30 10:00:00 16.1 4 Sur 5 Sur 0 -- -- 92
2018-05-30 09:00:00 15.5 0 Calma 6 Sur 0 -- -- 95
2018-05-30 08:00:00 15.3 3 Sudeste 5 Sudeste 0 -- -- 95
2018-05-30 07:00:00 15.2 3 Sur 6 Sur 0 -- -- 96
2018-05-30 06:00:00 15.2 0 Calma 6 Sudeste 0 -- -- 95
2018-05-30 05:00:00 15.3 0 Calma 8 Sur 0 -- -- 94
2018-05-30 04:00:00 15.4 4 Sur 7 Sur 0 -- -- 92
2018-05-30 03:00:00 15.4 3 Oeste 6 Oeste 0 -- -- 93
2018-05-30 02:00:00 15.7 0 Calma 5 Noroeste 0 -- -- 93
2018-05-30 01:00:00 15.9 0 Calma 5 Noroeste 0 -- -- 91
2018-05-30 00:00:00 16 0 Calma 5 Sudeste 0 -- -- 89
2018-05-29 23:00:00 16.3 3 Oeste 7 Oeste 0 -- -- 87
2018-05-29 22:00:00 16.8 4 Oeste 7 Oeste 0 -- -- 84
2018-05-29 21:00:00 17.4 5 Noroeste 11 Oeste 0 -- -- 81
2018-05-29 20:00:00 17.9 8 Oeste 16 Oeste 0 -- -- 78
2018-05-29 19:00:00 17.9 4 Noroeste 13 Noroeste 0 -- -- 78
2018-05-29 18:00:00 18.4 7 Noroeste 12 Norte 0 -- -- 75
2018-05-29 17:00:00 17.8 3 Oeste 10 Nordeste 0 -- -- 82
2018-05-29 16:00:00 17.5 6 Nordeste 11 Este 0 -- -- 84
2018-05-29 15:00:00 17.8 6 Norte 17 Noroeste 0 -- -- 81
2018-05-29 14:00:00 17.8 10 Noroeste 17 Noroeste 0 -- -- 82
2018-05-29 13:00:00 18.8 8 Norte 18 Noroeste 0 -- -- 80
2018-05-29 12:00:00 18.9 7 Nordeste 13 Nordeste 0 -- -- 77
2018-05-29 11:00:00 18.4 5 Este 8 Este 0 -- -- 80
2018-05-29 10:00:00 17 6 Sudeste 13 Sudeste 0 -- -- 88
2018-05-29 09:00:00 14.7 8 Sudeste 16 Sur 0 -- -- 97
2018-05-29 08:00:00 13.7 7 Sur 13 Sur 0 -- -- 98
2018-05-29 07:00:00 13.6 4 Sur 10 Sur 0 -- -- 97
2018-05-29 06:00:00 14.2 5 Sur 9 Sudeste 0 -- -- 97
2018-05-29 05:00:00 14.5 3 Sur 6 Sur 0 -- -- 96
2018-05-29 04:00:00 14.7 2 Sur 8 Sur 0 -- -- 96
2018-05-29 03:00:00 15.1 2 Sur 8 Sur 0 -- -- 95
2018-05-29 02:00:00 15.5 3 Sur 6 Sudoeste 0 -- -- 93
2018-05-29 01:00:00 15.7 3 Sudoeste 8 Sudoeste 0 -- -- 91
2018-05-29 00:00:00 15.8 5 Oeste 9 Oeste 0 -- -- 91
2018-05-28 23:00:00 16.1 3 Oeste 8 Oeste 0 -- -- 90
2018-05-28 22:00:00 16.5 3 Noroeste 9 Noroeste 0 -- -- 88
2018-05-28 21:00:00 17.3 4 Norte 14 Norte 0 -- -- 83
2018-05-28 20:00:00 17.7 9 Nordeste 14 Nordeste 0 -- -- 84
2018-05-28 19:00:00 17.3 5 Nordeste 12 Noroeste 0 -- -- 86
2018-05-28 18:00:00 17.1 5 Noroeste 15 Noroeste 0 -- -- 87
2018-05-28 17:00:00 17.2 9 Noroeste 21 Noroeste 0 -- -- 87
2018-05-28 16:00:00 17.5 12 Noroeste 18 Noroeste 0 -- -- 87
2018-05-28 15:00:00 17.1 7 Norte 16 Noroeste 0 -- -- 88
2018-05-28 14:00:00 17.2 7 Noroeste 16 Oeste 0 -- -- 86
2018-05-28 13:00:00 17.3 8 Noroeste 15 Noroeste 0 -- -- 86
2018-05-28 12:00:00 16.7 5 Noroeste 10 Oeste 0 -- -- 89
2018-05-28 11:00:00 16 2 Sur 6 Sudeste 0 -- -- 97
2018-05-28 10:00:00 15.2 4 Sur 9 Sur 0 -- -- 98
2018-05-28 09:00:00 14.6 6 Sur 11 Sur 0 -- -- 98
2018-05-28 08:00:00 14.4 5 Sur 9 Sur 0.2 -- -- 98
2018-05-28 07:00:00 14.5 0 Calma 6 Sudoeste 0.2 -- -- 97
2018-05-28 06:00:00 14.8 0 Calma 5 Sudeste 0.2 -- -- 97
2018-05-28 05:00:00 14.8 3 Sur 6 Sur 0 -- -- 97
2018-05-28 04:00:00 15 2 Sur 4 Sudoeste 0 -- -- 96
2018-05-28 03:00:00 15 2 Oeste 5 Sudeste 0 -- -- 96
2018-05-28 02:00:00 15 2 Oeste 6 Sudeste 0 -- -- 97
2018-05-28 01:00:00 15.1 4 Sudoeste 6 Sudoeste 0 -- -- 97
2018-05-28 00:00:00 15.3 3 Noroeste 10 Sudeste 0 -- -- 97
2018-05-27 23:00:00 15.2 5 Oeste 10 Sudoeste 0 -- -- 97
2018-05-27 22:00:00 15.3 4 Sur 7 Sur 0 -- -- 97
2018-05-27 21:00:00 15.4 2 Oeste 5 Oeste 0.2 -- -- 96
2018-05-27 20:00:00 15.5 3 Noroeste 8 Oeste 0 -- -- 95
2018-05-27 19:00:00 15.8 4 Noroeste 13 Norte 0 -- -- 92
2018-05-27 18:00:00 16.2 5 Noroeste 14 Norte 0.2 -- -- 91
2018-05-27 17:00:00 16.2 5 Norte 17 Norte 0.4 -- -- 91
2018-05-27 16:00:00 16.9 9 Nordeste 16 Nordeste 0 -- -- 91
2018-05-27 15:00:00 17.4 5 Norte 13 Nordeste 0 -- -- 90
2018-05-27 14:00:00 17.5 5 Nordeste 11 Nordeste 0 -- -- 89
2018-05-27 13:00:00 17.7 6 Nordeste 11 Nordeste 0 -- -- 87
2018-05-27 12:00:00 17.8 5 Nordeste 9 Nordeste 0 -- -- 87
2018-05-27 11:00:00 17.6 5 Nordeste 8 Nordeste 0 -- -- 88
2018-05-27 10:00:00 17 4 Nordeste 5 Nordeste 0 -- -- 94
2018-05-27 09:00:00 16.2 2 Sur 5 Sur 0 -- -- 98
2018-05-27 08:00:00 15.9 4 Sur 7 Sudeste 0 -- -- 98
2018-05-27 07:00:00 15.6 3 Oeste 5 Sur 0 -- -- 98
2018-05-27 06:00:00 15.7 0 Calma 5 Sur 0 -- -- 98
2018-05-27 05:00:00 15.8 4 Sudeste 6 Sudeste 0 -- -- 98
2018-05-27 04:00:00 15.8 3 Sudeste 5 Sur 0 -- -- 97
2018-05-27 03:00:00 16 4 Sur 6 Sudeste 0 -- -- 97
2018-05-27 02:00:00 15.9 3 Sudoeste 8 Sudeste 0 -- -- 96
2018-05-27 01:00:00 15.9 3 Oeste 6 Oeste 0 -- -- 96
2018-05-27 00:00:00 16.2 2 Sur 4 Sur 0 -- -- 97
2018-05-26 23:00:00 16.1 4 Oeste 8 Noroeste 0 -- -- 96
2018-05-26 22:00:00 16.1 2 Oeste 8 Sur 0 -- -- 95
2018-05-26 21:00:00 17.2 3 Sudeste 7 Sur 0.2 -- -- 93
2018-05-26 20:00:00 17.4 3 Noroeste 11 Sur 3.6 -- -- 92
2018-05-26 19:00:00 18.4 3 Este 12 Nordeste 0.2 -- -- 86
2018-05-26 18:00:00 19.2 6 Este 9 Este 0 -- -- 81
2018-05-26 17:00:00 18.2 6 Oeste 20 Noroeste 0 -- -- 87
2018-05-26 16:00:00 15.7 3 Noroeste 39 Noroeste 5 -- -- 99
2018-05-26 15:00:00 17 23 Noroeste 48 Oeste 7.6 -- -- 79
2018-05-26 14:00:00 20.2 8 Nordeste 15 Este 0 -- -- 84
2018-05-26 13:00:00 18.8 8 Nordeste 12 Nordeste 0 -- -- 89
2018-05-26 12:00:00 17.7 4 Noroeste 8 Sudeste 0 -- -- 92
2018-05-26 11:00:00 17.1 3 Sudeste 12 Sudeste 0 -- -- 94
2018-05-26 10:00:00 16.6 7 Sur 13 Sudeste 0 -- -- 97
2018-05-26 09:00:00 15.7 7 Sur 13 Sudeste 0 -- -- 99
2018-05-26 08:00:00 15.4 5 Sur 9 Sur 0 -- -- 99
2018-05-26 07:00:00 15.3 4 Sur 9 Sur 0 -- -- 99
2018-05-26 06:00:00 15.3 3 Sudoeste 6 Oeste 0 -- -- 99
2018-05-26 05:00:00 15.9 3 Oeste 9 Sudeste 0 -- -- 99
2018-05-26 04:00:00 16.3 6 Sur 10 Sur 0 -- -- 99
2018-05-26 03:00:00 16.4 3 Sur 9 Sudeste 0 -- -- 99
2018-05-26 02:00:00 16.5 5 Sudeste 11 Sudeste 0 -- -- 98
2018-05-26 01:00:00 16.6 3 Sur 6 Sudeste 0 -- -- 98
2018-05-26 00:00:00 16.6 2 Oeste 5 Noroeste 0.2 -- -- 97
2018-05-25 23:00:00 16.9 2 Sudoeste 5 Sur 1.8 -- -- 97
2018-05-25 22:00:00 17.3 2 Norte 8 Oeste 0.6 -- -- 96
2018-05-25 21:00:00 17.5 2 Sudoeste 9 Nordeste 0 -- -- 95
2018-05-25 20:00:00 17.8 4 Este 16 Nordeste 0.2 -- -- 94
2018-05-25 19:00:00 17.9 10 Nordeste 21 Este 0 -- -- 92
2018-05-25 18:00:00 18.9 6 Nordeste 9 Nordeste 0 -- -- 86
2018-05-25 17:00:00 18.4 5 Nordeste 8 Nordeste 0 -- -- 87
2018-05-25 16:00:00 18.6 4 Nordeste 12 Este 0 -- -- 88
2018-05-25 15:00:00 18.1 9 Nordeste 17 Nordeste 0 -- -- 91
2018-05-25 14:00:00 18.2 8 Nordeste 14 Este 0 -- -- 88
2018-05-25 13:00:00 18.5 5 Nordeste 10 Este 0.2 -- -- 85
2018-05-25 12:00:00 18.4 5 Norte 11 Nordeste 0 -- -- 86
2018-05-25 11:00:00 18.3 6 Nordeste 13 Nordeste 0 -- -- 87
2018-05-25 10:00:00 18.6 5 Norte 10 Nordeste 0 -- -- 87
2018-05-25 09:00:00 16.9 6 Norte 10 Norte 0 -- -- 96
2018-05-25 08:00:00 15.9 4 Sudeste 12 Sudeste 0 -- -- 98
2018-05-25 07:00:00 15.7 4 Sudeste 12 Sur 1.6 -- -- 98
2018-05-25 06:00:00 15.8 2 Sudeste 10 Sudeste 4 -- -- 97
2018-05-25 05:00:00 15.9 6 Sudoeste 15 Sudoeste 3.4 -- -- 97
2018-05-25 04:00:00 16.1 3 Noroeste 13 Norte 3 -- -- 96
2018-05-25 03:00:00 16.8 9 Noroeste 22 Norte 4 -- -- 95
2018-05-25 02:00:00 17.6 4 Oeste 9 Nordeste 0 -- -- 95
2018-05-25 01:00:00 17.7 0 Calma 6 Noroeste 0 -- -- 94
2018-05-25 00:00:00 17.7 3 Noroeste 8 Noroeste 0 -- -- 94
2018-05-24 23:00:00 17.8 2 Noroeste 8 Oeste 0 -- -- 92
2018-05-24 22:00:00 17.9 5 Oeste 9 Oeste 0 -- -- 92
2018-05-24 21:00:00 18.3 5 Oeste 8 Noroeste 0 -- -- 91
2018-05-24 20:00:00 18.5 5 Nordeste 12 Norte 0 -- -- 90
2018-05-24 19:00:00 18.8 6 Nordeste 21 Este 0.2 -- -- 89
2018-05-24 18:00:00 19.1 10 Nordeste 20 Este 0 -- -- 85
2018-05-24 17:00:00 19.6 17 Este 24 Nordeste 0 -- -- 84
2018-05-24 16:00:00 20.3 15 Este 21 Nordeste 0 -- -- 80
2018-05-24 15:00:00 20.4 12 Nordeste 22 Este 0 -- -- 78
2018-05-24 14:00:00 20.4 13 Nordeste 22 Este 0 -- -- 78
2018-05-24 13:00:00 20.8 8 Nordeste 17 Norte 0 -- -- 79
2018-05-24 12:00:00 20.2 6 Este 10 Nordeste 0 -- -- 80
2018-05-24 11:00:00 19.4 4 Sudeste 10 Sur 0 -- -- 85
2018-05-24 10:00:00 17.2 3 Sudeste 8 Sur 0 -- -- 97
2018-05-24 09:00:00 15.6 4 Sur 7 Sur 0 -- -- 99
2018-05-24 08:00:00 15 4 Sur 6 Sudeste 0 -- -- 98
2018-05-24 07:00:00 14.8 4 Sur 8 Sur 0 -- -- 98
2018-05-24 06:00:00 15.2 3 Norte 7 Sudoeste 0 -- -- 96
2018-05-24 05:00:00 15.4 2 Sudoeste 9 Sudoeste 0 -- -- 97
2018-05-24 04:00:00 15.9 4 Noroeste 7 Norte 0 -- -- 97
2018-05-24 03:00:00 16.3 0 Calma 9 Sur 0 -- -- 96
2018-05-24 02:00:00 16.6 6 Sudoeste 15 Sur 0 -- -- 96
2018-05-24 01:00:00 16.7 2 Sur 8 Sudeste 0 -- -- 96
2018-05-24 00:00:00 17.1 2 Sur 4 Sudoeste 0 -- -- 95
2018-05-23 23:00:00 17.3 2 Norte 5 Noroeste 0 -- -- 94
2018-05-23 22:00:00 17.6 3 Noroeste 9 Nordeste 0 -- -- 91
2018-05-23 21:00:00 18 4 Nordeste 13 Nordeste 0 -- -- 89
2018-05-23 20:00:00 18.1 3 Nordeste 13 Este 0.4 -- -- 91
2018-05-23 19:00:00 18.2 6 Nordeste 13 Nordeste 0 -- -- 89
2018-05-23 18:00:00 18.5 8 Nordeste 27 Nordeste 0 -- -- 85
2018-05-23 17:00:00 18.9 18 Nordeste 36 Este 0 -- -- 83
2018-05-23 16:00:00 19.5 20 Nordeste 37 Nordeste 0 -- -- 81
2018-05-23 15:00:00 19.7 23 Nordeste 35 Este 0 -- -- 77
2018-05-23 14:00:00 19.3 21 Nordeste 31 Este 0 -- -- 75
2018-05-23 13:00:00 19.7 9 Nordeste 17 Nordeste 0 -- -- 76
2018-05-23 12:00:00 18.2 6 Nordeste 10 Nordeste 0 -- -- 82
2018-05-23 11:00:00 17.8 5 Nordeste 9 Nordeste 0 -- -- 77
2018-05-23 10:00:00 16.1 2 Sudeste 9 Sur 0 -- -- 88
2018-05-23 09:00:00 14.8 7 Sur 11 Sur 0 -- -- 96
2018-05-23 08:00:00 13.8 4 Sudeste 9 Sur 0 -- -- 96
2018-05-23 07:00:00 13.2 3 Sur 7 Sur 0 -- -- 94
2018-05-23 06:00:00 13.8 2 Sudoeste 13 Sudeste 0 -- -- 94
2018-05-23 05:00:00 13.8 4 Sur 9 Sudeste 0 -- -- 92
2018-05-23 04:00:00 14 3 Sur 13 Sudeste 0 -- -- 92
2018-05-23 03:00:00 14.1 6 Sur 13 Sudeste 0 -- -- 93
2018-05-23 02:00:00 14.9 5 Sudeste 9 Sudeste 0 -- -- 95
2018-05-23 01:00:00 15.1 3 Sur 6 Sudeste 0 -- -- 95
2018-05-23 00:00:00 15.2 3 Sur 6 Sur 0 -- -- 95
2018-05-22 23:00:00 15.4 3 Oeste 5 Noroeste 0 -- -- 92
2018-05-22 22:00:00 16.9 3 Noroeste 9 Nordeste 0 -- -- 90
2018-05-22 21:00:00 18 6 Nordeste 12 Nordeste 0 -- -- 88
2018-05-22 20:00:00 18.9 8 Nordeste 15 Nordeste 0 -- -- 82
2018-05-22 19:00:00 20.8 8 Nordeste 17 Norte 0 -- -- 72
2018-05-22 18:00:00 21.5 10 Norte 17 Nordeste 0 -- -- 58
2018-05-22 17:00:00 20.9 9 Nordeste 21 Nordeste 0 -- -- 73
2018-05-22 16:00:00 20.7 11 Nordeste 22 Norte 0 -- -- 75
2018-05-22 15:00:00 20.5 13 Norte 22 Norte 0 -- -- 73
2018-05-22 14:00:00 20.6 10 Nordeste 19 Nordeste 0 -- -- 72
2018-05-22 13:00:00 21.2 8 Nordeste 13 Nordeste 0 -- -- 65
2018-05-22 12:00:00 20.6 7 Nordeste 11 Nordeste 0 -- -- 69
2018-05-22 11:00:00 19.2 7 Nordeste 12 Nordeste 0 -- -- 69
2018-05-22 10:00:00 16.8 6 Sudeste 12 Sudeste 0 -- -- 85
2018-05-22 09:00:00 14.1 9 Sudeste 14 Sudeste 0 -- -- 95
2018-05-22 08:00:00 11.8 5 Sur 11 Sur 0 -- -- 98
2018-05-22 07:00:00 10.6 4 Sudoeste 9 Sur 0 -- -- 98
2018-05-22 06:00:00 10.7 8 Sur 13 Sur 0 -- -- 98
2018-05-22 05:00:00 10.9 5 Sur 12 Sur 0 -- -- 97
2018-05-22 04:00:00 10.8 5 Sur 8 Sudeste 0 -- -- 96
2018-05-22 03:00:00 11 0 Calma 6 Sur 0 -- -- 95
2018-05-22 02:00:00 11.5 4 Sur 8 Sur 0 -- -- 93
2018-05-22 01:00:00 12.3 4 Sur 8 Sur 0 -- -- 92
2018-05-22 00:00:00 13.1 4 Sur 7 Sur 0 -- -- 91